createdAt,value
2019-02-05T00:01:15.173Z,19.30
2019-02-05T00:03:44.620Z,18.55
2019-02-05T00:06:12.614Z,18.67
2019-02-05T00:08:40.709Z,19.12
2019-02-05T00:11:08.541Z,20.45
2019-02-05T00:13:36.212Z,17.98
2019-02-05T00:16:04.281Z,17.75
2019-02-05T00:18:31.956Z,17.60
2019-02-05T00:20:59.731Z,20.25
2019-02-05T00:23:27.537Z,20.75
2019-02-05T00:26:05.662Z,21.62
2019-02-05T00:28:25.118Z,19.52
2019-02-05T00:30:53.006Z,17.70
2019-02-05T00:33:20.881Z,20.97
2019-02-05T00:35:48.644Z,18.70
2019-02-05T00:38:16.384Z,18.15
2019-02-05T00:40:44.759Z,20.65
2019-02-05T00:43:12.497Z,17.98
2019-02-05T00:45:40.170Z,21.17
2019-02-05T00:48:08.153Z,25.80
2019-02-05T00:50:36.020Z,20.62
2019-02-05T00:53:04.033Z,22.87
2019-02-05T00:55:31.859Z,22.95
2019-02-05T00:58:00.169Z,21.82
2019-02-05T01:00:29.233Z,22.00
2019-02-05T01:02:58.394Z,19.57
2019-02-05T01:05:26.196Z,19.10
2019-02-05T01:07:54.125Z,21.07
2019-02-05T01:10:22.909Z,20.65
2019-02-05T01:12:51.639Z,19.37
2019-02-05T01:15:21.702Z,19.12
2019-02-05T01:17:51.320Z,21.95
2019-02-05T01:20:19.169Z,16.85
2019-02-05T01:22:47.666Z,22.67
2019-02-05T01:25:16.548Z,22.55
2019-02-05T01:27:45.449Z,19.20
2019-02-05T01:30:16.304Z,19.02
2019-02-05T01:32:45.577Z,20.25
2019-02-05T01:35:13.347Z,20.12
2019-02-05T01:37:41.519Z,19.85
2019-02-05T01:40:12.138Z,19.32
2019-02-05T01:42:41.794Z,18.15
2019-02-05T01:45:12.636Z,21.35
2019-02-05T01:47:41.910Z,17.67
2019-02-05T01:50:12.210Z,18.20
2019-02-05T01:52:41.586Z,21.50
2019-02-05T01:55:10.298Z,20.35
2019-02-05T01:57:38.593Z,20.00
2019-02-05T02:00:09.655Z,20.55
2019-02-05T02:02:38.910Z,18.00
2019-02-05T02:05:06.697Z,19.55
2019-02-05T02:07:34.777Z,21.55
2019-02-05T02:10:03.158Z,19.07
2019-02-05T02:12:33.003Z,18.60
2019-02-05T02:15:00.835Z,20.02
2019-02-05T02:17:30.090Z,20.57
2019-02-05T02:19:57.909Z,17.55
2019-02-05T02:22:25.569Z,20.10
2019-02-05T02:24:53.330Z,21.90
2019-02-05T02:27:21.002Z,21.50
2019-02-05T02:29:49.464Z,21.65
2019-02-05T02:32:17.133Z,23.67
2019-02-05T02:34:44.901Z,20.97
2019-02-05T02:37:12.654Z,23.73
2019-02-05T02:39:40.311Z,23.27
2019-02-05T02:42:08.552Z,19.48
2019-02-05T02:44:36.340Z,19.80
2019-02-05T02:47:04.279Z,19.25
2019-02-05T02:49:33.857Z,21.42
2019-02-05T02:52:01.709Z,25.20
2019-02-05T02:54:29.591Z,26.35
2019-02-05T02:57:04.513Z,20.52
2019-02-05T02:59:26.998Z,23.77
2019-02-05T03:01:54.753Z,21.55
2019-02-05T03:04:22.537Z,23.47
2019-02-05T03:06:50.722Z,27.42
2019-02-05T03:09:18.474Z,20.57
2019-02-05T03:11:46.318Z,24.27
2019-02-05T03:14:14.013Z,22.07
2019-02-05T03:16:41.801Z,22.40
2019-02-05T03:19:09.492Z,25.20
2019-02-05T03:21:37.393Z,22.15
2019-02-05T03:24:05.190Z,22.22
2019-02-05T03:26:33.053Z,20.80
2019-02-05T03:29:00.718Z,24.27
2019-02-05T03:31:28.583Z,25.75
2019-02-05T03:33:56.517Z,20.65
2019-02-05T03:36:24.200Z,25.52
2019-02-05T03:38:51.952Z,27.17
2019-02-05T03:41:20.012Z,24.63
2019-02-05T03:43:47.948Z,25.60
2019-02-05T03:46:16.552Z,26.15
2019-02-05T03:48:46.968Z,24.75
2019-02-05T03:51:54.515Z,30.65
2019-02-05T03:55:10.636Z,24.47
2019-02-05T03:58:14.204Z,22.13
2019-02-05T04:01:12.912Z,24.00
2019-02-05T04:04:14.045Z,24.85
2019-02-05T04:07:02.257Z,27.20
2019-02-05T04:10:02.643Z,29.70
2019-02-05T04:13:11.585Z,26.97
2019-02-05T04:16:15.680Z,24.27
2019-02-05T04:19:18.038Z,28.35
2019-02-05T04:22:14.918Z,26.93
2019-02-05T04:25:28.359Z,28.23
2019-02-05T04:28:34.195Z,27.70
2019-02-05T04:31:29.498Z,21.97
2019-02-05T04:34:55.914Z,28.83
2019-02-05T04:38:25.309Z,25.23
2019-02-05T04:41:16.980Z,26.48
2019-02-05T04:44:28.142Z,29.02
2019-02-05T04:47:37.722Z,27.27
2019-02-05T04:50:23.914Z,29.77
2019-02-05T04:53:40.381Z,30.35
2019-02-05T04:57:00.331Z,28.20
2019-02-05T05:00:20.326Z,32.67
2019-02-05T05:03:40.581Z,33.70
2019-02-05T05:06:47.431Z,29.40
2019-02-05T05:09:55.459Z,25.92
2019-02-05T05:12:24.965Z,29.82
2019-02-05T05:14:53.233Z,27.20
2019-02-05T05:17:21.363Z,28.23
2019-02-05T05:19:49.360Z,28.98
2019-02-05T05:22:17.710Z,29.10
2019-02-05T05:24:45.680Z,32.20
2019-02-05T05:27:16.056Z,27.05
2019-02-05T05:29:44.515Z,30.12
2019-02-05T05:32:12.682Z,30.32
2019-02-05T05:34:40.878Z,30.00
2019-02-05T05:37:07.615Z,37.50
2019-02-05T05:39:35.157Z,32.73
2019-02-05T05:42:03.677Z,30.82
2019-02-05T05:44:31.526Z,35.48
2019-02-05T05:46:59.265Z,31.37
2019-02-05T05:49:29.438Z,29.95
2019-02-05T05:51:57.186Z,32.83
2019-02-05T05:54:24.870Z,27.73
2019-02-05T05:56:52.647Z,31.50
2019-02-05T05:59:20.506Z,31.75
2019-02-05T06:01:48.265Z,32.23
2019-02-05T06:04:16.028Z,26.75
2019-02-05T06:06:44.215Z,32.30
2019-02-05T06:09:12.083Z,29.15
2019-02-05T06:11:40.058Z,31.55
2019-02-05T06:14:08.034Z,31.80
2019-02-05T06:16:35.766Z,31.68
2019-02-05T06:19:03.512Z,34.43
2019-02-05T06:21:31.286Z,32.63
2019-02-05T06:23:59.653Z,35.13
2019-02-05T06:26:27.433Z,32.15
2019-02-05T06:28:55.293Z,30.05
2019-02-05T06:31:22.969Z,30.82
2019-02-05T06:33:50.929Z,29.25
2019-02-05T06:36:18.701Z,35.55
2019-02-05T06:38:46.647Z,31.73
2019-02-05T06:41:14.505Z,30.52
2019-02-05T06:43:42.353Z,37.75
2019-02-05T06:46:10.124Z,29.80
2019-02-05T06:48:37.786Z,34.05
2019-02-05T06:51:06.557Z,31.23
2019-02-05T06:53:34.338Z,36.70
2019-02-05T06:56:02.169Z,34.48
2019-02-05T06:58:30.039Z,37.90
2019-02-05T07:00:58.428Z,31.57
2019-02-05T07:03:26.303Z,33.18
2019-02-05T07:05:54.028Z,32.38
2019-02-05T07:08:21.805Z,34.20
2019-02-05T07:10:49.767Z,36.75
2019-02-05T07:13:17.685Z,31.60
2019-02-05T07:15:45.315Z,35.03
2019-02-05T07:18:13.090Z,31.90
2019-02-05T07:20:40.913Z,32.45
2019-02-05T07:23:08.553Z,33.98
2019-02-05T07:25:36.386Z,42.88
2019-02-05T07:28:04.358Z,36.80
2019-02-05T07:30:32.277Z,35.17
2019-02-05T07:32:59.947Z,36.95
2019-02-05T07:35:28.267Z,34.55
2019-02-05T07:37:56.451Z,30.00
2019-02-05T07:40:24.406Z,36.28
2019-02-05T07:42:52.294Z,40.80
2019-02-05T07:45:20.774Z,35.40
2019-02-05T07:47:49.514Z,38.48
2019-02-05T07:50:22.049Z,33.45
2019-02-05T07:52:51.505Z,36.30
2019-02-05T07:55:19.351Z,42.65
2019-02-05T07:57:47.582Z,38.25
2019-02-05T08:00:17.974Z,37.98
2019-02-05T08:02:47.422Z,38.38
2019-02-05T08:05:17.265Z,43.00
2019-02-05T08:07:46.997Z,38.42
2019-02-05T08:10:17.213Z,38.85
2019-02-05T08:12:46.834Z,43.63
2019-02-05T08:15:17.238Z,43.15
2019-02-05T08:17:46.541Z,45.95
2019-02-05T08:20:14.386Z,37.98
2019-02-05T08:22:42.317Z,51.53
2019-02-05T08:25:11.863Z,43.38
2019-02-05T08:27:40.369Z,43.17
2019-02-05T08:30:16.743Z,41.75
2019-02-05T08:32:46.153Z,40.78
2019-02-05T08:35:14.677Z,40.83
2019-02-05T08:37:43.417Z,42.70
2019-02-05T08:40:14.034Z,38.13
2019-02-05T08:42:43.385Z,39.00
2019-02-05T08:45:14.337Z,44.55
2019-02-05T08:47:44.074Z,40.67
2019-02-05T08:50:14.787Z,39.70
2019-02-05T08:52:44.202Z,41.70
2019-02-05T08:55:13.518Z,43.13
2019-02-05T08:57:42.783Z,39.25
2019-02-05T09:00:14.188Z,38.88
2019-02-05T09:02:43.761Z,40.52
2019-02-05T09:05:11.680Z,38.58
2019-02-05T09:07:40.361Z,40.63
2019-02-05T09:10:10.925Z,38.30
2019-02-05T09:12:40.284Z,42.05
2019-02-05T09:15:09.525Z,43.50
2019-02-05T09:17:37.995Z,41.42
2019-02-05T09:20:08.433Z,39.95
2019-02-05T09:22:37.785Z,42.90
2019-02-05T09:25:06.550Z,38.75
2019-02-05T09:27:35.791Z,40.45
2019-02-05T09:30:05.150Z,41.05
2019-02-05T09:32:35.114Z,43.05
2019-02-05T09:35:04.326Z,36.42
2019-02-05T09:37:33.892Z,33.65
2019-02-05T09:40:01.753Z,42.25
2019-02-05T09:42:31.188Z,32.35
2019-02-05T09:44:59.073Z,32.05
2019-02-05T09:47:26.880Z,35.10
2019-02-05T09:49:54.644Z,29.23
2019-02-05T09:52:22.304Z,32.50
2019-02-05T09:54:50.442Z,29.98
2019-02-05T09:57:18.303Z,26.12
2019-02-05T09:59:45.945Z,34.78
2019-02-05T10:02:13.673Z,32.30
2019-02-05T10:04:41.321Z,30.65
2019-02-05T10:07:09.050Z,26.82
2019-02-05T10:09:36.801Z,27.17
2019-02-05T10:12:05.612Z,27.73
2019-02-05T10:14:33.789Z,35.50
2019-02-05T10:17:01.643Z,32.10
2019-02-05T10:19:29.604Z,29.15
2019-02-05T10:21:57.450Z,28.45
2019-02-05T10:24:25.290Z,27.85
2019-02-05T10:26:53.328Z,27.77
2019-02-05T10:29:21.322Z,24.27
2019-02-05T10:31:49.362Z,26.82
2019-02-05T10:34:17.113Z,26.93
2019-02-05T10:36:44.955Z,29.75
2019-02-05T10:39:13.226Z,30.77
2019-02-05T10:41:41.380Z,29.35
2019-02-05T10:44:09.358Z,30.10
2019-02-05T10:46:37.405Z,30.90
2019-02-05T10:49:05.369Z,29.55
2019-02-05T10:51:33.624Z,35.28
2019-02-05T10:54:01.546Z,31.42
2019-02-05T10:56:29.871Z,32.63
2019-02-05T10:58:57.825Z,30.75
2019-02-05T11:01:25.586Z,30.50
2019-02-05T11:03:53.562Z,32.95
2019-02-05T11:06:21.353Z,25.92
2019-02-05T11:08:49.282Z,23.70
2019-02-05T11:11:17.210Z,25.10
2019-02-05T11:13:45.031Z,26.60
2019-02-05T11:16:12.722Z,26.27
2019-02-05T11:18:40.461Z,24.52
2019-02-05T11:21:08.260Z,30.55
2019-02-05T11:23:36.196Z,25.23
2019-02-05T11:26:04.088Z,27.75
2019-02-05T11:28:32.510Z,27.27
2019-02-05T11:31:00.317Z,21.07
2019-02-05T11:33:28.163Z,25.90
2019-02-05T11:35:55.948Z,23.52
2019-02-05T11:38:23.679Z,25.52
2019-02-05T11:40:51.698Z,21.85
2019-02-05T11:43:19.737Z,24.98
2019-02-05T11:45:47.670Z,18.73
2019-02-05T11:48:17.016Z,19.42
2019-02-05T11:50:45.158Z,27.10
2019-02-05T11:53:13.053Z,22.02
2019-02-05T11:55:41.008Z,30.57
2019-02-05T11:58:08.775Z,28.17
2019-02-05T12:01:02.195Z,26.20
2019-02-05T12:03:31.222Z,37.67
2019-02-05T12:05:59.157Z,27.05
2019-02-05T12:08:27.239Z,26.80
2019-02-05T12:10:55.081Z,29.72
2019-02-05T12:13:22.828Z,29.63
2019-02-05T12:15:50.696Z,26.48
2019-02-05T12:18:18.441Z,27.20
2019-02-05T12:20:46.352Z,28.00
2019-02-05T12:23:14.072Z,28.25
2019-02-05T12:25:42.020Z,30.68
2019-02-05T12:28:09.877Z,24.35
2019-02-05T12:30:44.826Z,29.40
2019-02-05T12:33:07.674Z,24.87
2019-02-05T12:35:35.813Z,24.95
2019-02-05T12:38:04.966Z,28.20
2019-02-05T12:40:32.891Z,23.62
2019-02-05T12:43:01.090Z,29.87
2019-02-05T12:45:29.946Z,26.52
2019-02-05T12:47:59.379Z,22.82
2019-02-05T12:50:29.491Z,28.15
2019-02-05T12:53:04.757Z,22.55
2019-02-05T12:55:32.776Z,21.60
2019-02-05T12:58:03.179Z,20.40
2019-02-05T13:00:36.829Z,15.48
2019-02-05T13:03:09.341Z,20.25
2019-02-05T13:05:39.810Z,19.95
2019-02-05T13:08:08.762Z,22.93
2019-02-05T13:10:39.255Z,20.85
2019-02-05T13:13:08.865Z,19.10
2019-02-05T13:15:36.725Z,19.30
2019-02-05T13:18:04.997Z,16.65
2019-02-05T13:20:33.339Z,21.60
2019-02-05T13:23:02.635Z,17.12
2019-02-05T13:25:31.809Z,17.65
2019-02-05T13:27:59.841Z,16.07
2019-02-05T13:30:29.641Z,16.23
2019-02-05T13:32:58.779Z,23.65
2019-02-05T13:35:27.246Z,19.27
2019-02-05T13:37:55.445Z,18.15
2019-02-05T13:40:24.177Z,14.40
2019-02-05T13:42:53.559Z,20.75
2019-02-05T13:45:24.102Z,12.90
2019-02-05T13:47:53.369Z,18.77
2019-02-05T13:50:33.099Z,16.35
2019-02-05T13:52:56.879Z,15.13
2019-02-05T13:55:29.746Z,18.82
2019-02-05T13:57:59.531Z,13.72
2019-02-05T14:00:35.762Z,19.42
2019-02-05T14:03:06.906Z,13.88
2019-02-05T14:05:36.081Z,18.15
2019-02-05T14:08:04.344Z,14.70
2019-02-05T14:10:32.984Z,11.75
2019-02-05T14:13:02.395Z,16.02
2019-02-05T14:15:32.708Z,14.33
2019-02-05T14:18:02.243Z,19.92
2019-02-05T14:20:31.034Z,17.90
2019-02-05T14:22:58.892Z,17.37
2019-02-05T14:25:26.688Z,18.50
2019-02-05T14:27:54.415Z,16.40
2019-02-05T14:30:30.634Z,16.77
2019-02-05T14:33:00.052Z,19.07
2019-02-05T14:35:28.541Z,22.22
2019-02-05T14:37:56.862Z,18.48
2019-02-05T14:40:24.886Z,14.87
2019-02-05T14:42:53.459Z,16.52
2019-02-05T14:45:21.221Z,14.10
2019-02-05T14:47:49.584Z,15.10
2019-02-05T14:50:20.895Z,18.75
2019-02-05T14:52:50.479Z,19.42
2019-02-05T14:55:18.282Z,15.80
2019-02-05T14:57:46.179Z,18.67
2019-02-05T15:00:26.217Z,20.23
2019-02-05T15:02:55.897Z,19.52
2019-02-05T15:05:23.818Z,15.90
2019-02-05T15:07:51.830Z,17.50
2019-02-05T15:10:20.888Z,20.55
2019-02-05T15:12:49.354Z,18.55
2019-02-05T15:15:17.622Z,18.98
2019-02-05T15:17:47.194Z,17.77
2019-02-05T15:20:18.711Z,24.15
2019-02-05T15:22:48.114Z,19.07
2019-02-05T15:25:15.984Z,18.55
2019-02-05T15:27:43.778Z,16.35
2019-02-05T15:30:18.086Z,17.65
2019-02-05T15:33:09.787Z,18.85
2019-02-05T15:35:41.799Z,15.98
2019-02-05T15:38:11.189Z,16.73
2019-02-05T15:40:39.188Z,20.72
2019-02-05T15:43:07.358Z,18.00
2019-02-05T15:45:35.205Z,19.17
2019-02-05T15:48:02.990Z,17.82
2019-02-05T15:50:30.934Z,19.05
2019-02-05T15:52:58.742Z,16.42
2019-02-05T15:55:26.512Z,18.17
2019-02-05T15:57:54.219Z,18.92
2019-02-05T16:00:22.205Z,17.85
2019-02-05T16:02:50.790Z,23.67
2019-02-05T16:05:18.655Z,18.62
2019-02-05T16:07:46.339Z,19.00
2019-02-05T16:10:14.780Z,21.62
2019-02-05T16:12:44.150Z,19.87
2019-02-05T16:15:12.236Z,20.62
2019-02-05T16:17:40.129Z,41.73
2019-02-05T16:20:09.159Z,121.25
2019-02-05T16:22:38.626Z,38.08
2019-02-05T16:25:09.051Z,31.10
2019-02-05T16:27:38.343Z,29.37
2019-02-05T16:30:12.815Z,21.12
2019-02-05T16:32:41.722Z,19.57
2019-02-05T16:35:09.826Z,19.80
2019-02-05T16:37:37.996Z,18.65
2019-02-05T16:40:09.791Z,15.95
2019-02-05T16:42:39.248Z,22.17
2019-02-05T16:45:09.905Z,18.02
2019-02-05T16:47:39.238Z,17.05
2019-02-05T16:50:11.498Z,17.85
2019-02-05T16:52:40.855Z,17.60
2019-02-05T16:55:08.914Z,16.90
2019-02-05T16:57:36.898Z,18.32
2019-02-05T17:00:13.497Z,18.62
2019-02-05T17:02:42.829Z,20.20
2019-02-05T17:05:11.430Z,18.57
2019-02-05T17:07:40.166Z,21.50
2019-02-05T17:10:09.392Z,18.23
2019-02-05T17:12:38.764Z,27.32
2019-02-05T17:15:08.762Z,19.05
2019-02-05T17:17:38.155Z,22.13
2019-02-05T17:20:08.730Z,20.23
2019-02-05T17:22:38.028Z,18.35
2019-02-05T17:25:06.778Z,19.98
2019-02-05T17:27:36.226Z,16.85
2019-02-05T17:30:08.343Z,20.20
2019-02-05T17:32:40.365Z,25.55
2019-02-05T17:35:07.880Z,17.77
2019-02-05T17:37:36.162Z,17.25
2019-02-05T17:40:05.653Z,17.73
2019-02-05T17:42:35.149Z,18.10
2019-02-05T17:45:05.556Z,19.07
2019-02-05T17:47:34.874Z,16.73
2019-02-05T17:50:03.122Z,23.83
2019-02-05T17:52:32.438Z,19.55
2019-02-05T17:55:00.384Z,19.15
2019-02-05T17:57:28.237Z,21.48
2019-02-05T17:59:56.123Z,19.98
2019-02-05T18:02:23.798Z,18.55
2019-02-05T18:04:51.665Z,22.13
2019-02-05T18:07:19.523Z,18.60
2019-02-05T18:09:47.411Z,21.07
2019-02-05T18:12:15.201Z,18.17
2019-02-05T18:14:42.972Z,21.45
2019-02-05T18:17:10.901Z,20.32
2019-02-05T18:19:38.825Z,20.20
2019-02-05T18:22:08.008Z,23.07
2019-02-05T18:24:36.164Z,19.10
2019-02-05T18:27:04.287Z,20.27
2019-02-05T18:29:32.209Z,17.50
2019-02-05T18:32:00.376Z,21.05
2019-02-05T18:34:28.222Z,19.23
2019-02-05T18:36:56.245Z,24.25
2019-02-05T18:39:24.326Z,23.55
2019-02-05T18:41:52.400Z,28.05
2019-02-05T18:44:20.165Z,24.92
2019-02-05T18:46:48.078Z,25.05
2019-02-05T18:49:16.392Z,19.90
2019-02-05T18:51:44.303Z,23.87
2019-02-05T18:54:12.310Z,27.22
2019-02-05T18:56:40.054Z,26.50
2019-02-05T18:59:07.916Z,19.77
2019-02-05T19:01:35.751Z,21.55
2019-02-05T19:04:03.917Z,19.92
2019-02-05T19:06:32.516Z,23.25
2019-02-05T19:09:00.929Z,23.25
2019-02-05T19:11:30.248Z,22.10
2019-02-05T19:13:58.014Z,22.40
2019-02-05T19:16:32.074Z,21.50
2019-02-05T19:18:59.862Z,22.07
2019-02-05T19:21:28.396Z,29.25
2019-02-05T19:24:04.580Z,30.00
2019-02-05T19:26:41.692Z,39.10
2019-02-05T19:29:18.429Z,38.85
2019-02-05T19:31:40.311Z,32.23
2019-02-05T19:34:09.033Z,32.25
2019-02-05T19:36:37.075Z,29.80
2019-02-05T19:39:07.080Z,26.10
2019-02-05T19:41:34.980Z,27.85
2019-02-05T19:44:03.031Z,29.02
2019-02-05T19:46:59.634Z,26.73
2019-02-05T19:49:39.691Z,23.15
2019-02-05T19:52:07.400Z,23.12
2019-02-05T19:54:35.322Z,23.73
2019-02-05T19:57:03.314Z,19.07
2019-02-05T19:59:31.229Z,23.20
2019-02-05T20:01:59.473Z,20.77
2019-02-05T20:04:27.417Z,24.57
2019-02-05T20:06:55.339Z,19.98
2019-02-05T20:09:23.249Z,21.27
2019-02-05T20:11:51.147Z,22.62
2019-02-05T20:14:18.950Z,21.50
2019-02-05T20:16:46.844Z,22.32
2019-02-05T20:19:14.594Z,27.50
2019-02-05T20:21:42.876Z,19.10
2019-02-05T20:24:10.733Z,20.95
2019-02-05T20:26:38.696Z,25.75
2019-02-05T20:29:06.416Z,20.15
2019-02-05T20:31:34.284Z,18.65
2019-02-05T20:34:02.112Z,21.95
2019-02-05T20:36:30.420Z,20.55
2019-02-05T20:38:58.686Z,21.50
2019-02-05T20:41:26.575Z,39.65
2019-02-05T20:43:54.681Z,20.95
2019-02-05T20:46:22.413Z,20.77
2019-02-05T20:48:50.404Z,24.52
2019-02-05T20:51:18.239Z,23.10
2019-02-05T20:53:46.169Z,21.57
2019-02-05T20:56:13.967Z,21.95
2019-02-05T20:58:42.410Z,28.45
2019-02-05T21:01:10.252Z,26.87
2019-02-05T21:03:38.276Z,25.27
2019-02-05T21:06:06.334Z,21.85
2019-02-05T21:08:34.348Z,26.50
2019-02-05T21:11:02.291Z,23.32
2019-02-05T21:13:30.469Z,27.07
2019-02-05T21:15:58.293Z,29.40
2019-02-05T21:18:26.640Z,22.87
2019-02-05T21:20:54.567Z,20.52
2019-02-05T21:23:22.513Z,25.75
2019-02-05T21:25:50.464Z,21.05
2019-02-05T21:28:18.457Z,22.22
2019-02-05T21:30:46.306Z,22.45
2019-02-05T21:33:14.082Z,27.22
2019-02-05T21:35:42.232Z,29.60
2019-02-05T21:38:10.170Z,24.40
2019-02-05T21:40:38.074Z,26.00
2019-02-05T21:43:05.953Z,24.65
2019-02-05T21:45:33.859Z,28.25
2019-02-05T21:48:01.728Z,23.02
2019-02-05T21:50:29.844Z,26.68
2019-02-05T21:52:58.085Z,20.68
2019-02-05T21:55:26.533Z,24.00
2019-02-05T21:57:54.673Z,28.70
2019-02-05T22:00:27.468Z,25.23
2019-02-05T22:02:57.157Z,31.93
2019-02-05T22:05:25.271Z,29.98
2019-02-05T22:07:54.523Z,38.08
2019-02-05T22:10:22.918Z,33.67
2019-02-05T22:12:50.949Z,41.92
2019-02-05T22:15:19.565Z,35.25
2019-02-05T22:17:47.519Z,38.15
2019-02-05T22:20:17.413Z,38.00
2019-02-05T22:22:46.926Z,39.95
2019-02-05T22:25:19.998Z,37.38
2019-02-05T22:27:49.422Z,42.35
2019-02-05T22:30:21.868Z,37.55
2019-02-05T22:32:51.334Z,45.38
2019-02-05T22:35:19.298Z,41.50
2019-02-05T22:37:47.766Z,43.85
2019-02-05T22:40:17.152Z,39.38
2019-02-05T22:42:46.694Z,42.43
2019-02-05T22:45:14.998Z,34.88
2019-02-05T22:47:44.615Z,33.10
2019-02-05T22:50:15.190Z,31.40
2019-02-05T22:52:44.652Z,34.25
2019-02-05T22:55:12.765Z,38.75
2019-02-05T22:57:40.963Z,32.95
2019-02-05T23:00:39.879Z,39.98
2019-02-05T23:03:09.755Z,45.92
2019-02-05T23:06:03.694Z,46.28
2019-02-05T23:08:33.182Z,42.25
2019-02-05T23:11:49.272Z,40.65
2019-02-05T23:14:18.557Z,39.60
2019-02-05T23:16:46.361Z,38.10
2019-02-05T23:19:14.462Z,41.40
2019-02-05T23:21:42.644Z,33.75
2019-02-05T23:24:10.405Z,41.68
2019-02-05T23:26:38.139Z,40.55
2019-02-05T23:29:06.149Z,38.10
2019-02-05T23:31:33.913Z,44.70
2019-02-05T23:34:01.741Z,44.08
2019-02-05T23:36:29.638Z,41.10
2019-02-05T23:38:57.714Z,43.08
2019-02-05T23:41:25.400Z,39.10
2019-02-05T23:43:53.449Z,44.33
2019-02-05T23:46:21.240Z,44.00
2019-02-05T23:48:49.074Z,45.43
2019-02-05T23:51:16.762Z,43.02
2019-02-05T23:53:44.534Z,41.92
2019-02-05T23:56:12.398Z,39.53
2019-02-05T23:58:40.230Z,38.17
